Time;durP1;ratioP1;P1;durP2;ratioP2;P2;SDS_P1;SDS_P2;PMS_P1;PMS_P2;Temp;Humidity;BMP_temperature;BMP_pressure;BME280_temperature;BME280_humidity;BME280_pressure;Samples;Min_cycle;Max_cycle;Signal;HPM_P1;HPM_P2
2023/09/03 00:00:41;;;;;;;28.27;7.47;;;27.00;57.90;;;;;;5079785;28;20311;-78
2023/09/03 00:03:08;;;;;;;37.67;8.23;;;27.00;57.80;;;;;;5077587;28;20234;-78
2023/09/03 00:05:36;;;;;;;38.73;8.37;;;27.00;57.80;;;;;;5070838;28;20295;-79
2023/09/03 00:08:03;;;;;;;29.50;7.33;;;27.00;58.40;;;;;;5078677;28;20290;-78
2023/09/03 00:10:34;;;;;;;27.33;7.30;;;27.00;57.80;;;;;;5089424;28;20206;-78
2023/09/03 00:13:03;;;;;;;23.97;7.00;;;26.90;57.80;;;;;;5090709;28;20846;-78
2023/09/03 00:15:30;;;;;;;27.93;7.13;;;27.00;57.80;;;;;;5088770;28;20202;-78
2023/09/03 00:17:57;;;;;;;26.13;6.87;;;27.00;57.90;;;;;;5071063;28;20242;-78
2023/09/03 00:20:24;;;;;;;31.40;7.63;;;26.90;57.80;;;;;;5074669;28;20244;-78
2023/09/03 00:22:51;;;;;;;18.13;5.87;;;26.90;57.80;;;;;;5070655;28;20322;-78
2023/09/03 00:25:18;;;;;;;28.23;7.27;;;26.90;57.80;;;;;;5085275;28;20313;-78
2023/09/03 00:27:46;;;;;;;23.67;6.77;;;26.90;57.80;;;;;;5090934;28;20197;-78
2023/09/03 00:30:14;;;;;;;22.30;6.97;;;26.90;57.80;;;;;;5083370;28;20239;-78
2023/09/03 00:32:41;;;;;;;34.00;8.10;;;26.90;57.80;;;;;;5070919;28;20898;-78
2023/09/03 00:35:08;;;;;;;23.47;6.77;;;26.90;57.90;;;;;;5071500;28;20260;-78
2023/09/03 00:37:35;;;;;;;24.80;7.00;;;26.90;57.80;;;;;;5070392;28;20631;-79
2023/09/03 00:40:02;;;;;;;20.93;6.47;;;26.90;57.90;;;;;;5070618;28;20198;-79
2023/09/03 00:42:29;;;;;;;42.63;8.33;;;26.90;57.90;;;;;;5071201;28;20739;-79
2023/09/03 00:44:58;;;;;;;45.50;9.23;;;26.90;57.90;;;;;;5069871;28;20727;-79
2023/09/03 00:47:25;;;;;;;24.37;7.30;;;26.90;57.90;;;;;;5082529;28;20237;-79
2023/09/03 00:49:52;;;;;;;21.53;6.80;;;26.90;57.90;;;;;;5074407;28;20202;-79
2023/09/03 00:52:20;;;;;;;31.63;7.63;;;26.80;57.80;;;;;;5079093;28;20256;-79
2023/09/03 00:54:47;;;;;;;23.30;7.60;;;26.80;57.80;;;;;;5089537;28;20209;-79
2023/09/03 00:57:14;;;;;;;23.67;6.47;;;26.80;58.40;;;;;;5090640;28;20286;-79
2023/09/03 00:59:42;;;;;;;32.10;7.87;;;26.80;57.80;;;;;;5088975;28;20289;-80
2023/09/03 01:02:15;;;;;;;32.93;7.87;;;26.80;57.80;;;;;;5086991;28;20199;-80
2023/09/03 01:04:42;;;;;;;25.60;7.30;;;26.80;57.80;;;;;;5089225;28;20222;-80
2023/09/03 01:07:10;;;;;;;29.77;7.87;;;26.80;57.80;;;;;;5080933;28;20617;-80
2023/09/03 01:09:40;;;;;;;57.90;9.97;;;26.80;57.80;;;;;;5088946;28;20283;-79
2023/09/03 01:12:12;;;;;;;28.60;7.40;;;26.80;57.90;;;;;;5084060;28;20234;-80
2023/09/03 01:14:50;;;;;;;32.10;7.60;;;26.80;57.80;;;;;;5077988;28;20238;-78
2023/09/03 01:17:27;;;;;;;32.07;7.77;;;26.80;57.80;;;;;;5089319;28;20203;-79
2023/09/03 01:20:05;;;;;;;42.57;8.87;;;26.80;57.80;;;;;;5073605;28;20203;-80
2023/09/03 01:23:11;;;;;;;26.63;7.30;;;26.80;57.80;;;;;;5077881;28;20647;-79
2023/09/03 01:26:03;;;;;;;27.63;7.23;;;26.80;57.80;;;;;;5076293;28;20226;-79
2023/09/03 01:28:33;;;;;;;36.90;8.13;;;26.70;57.80;;;;;;5089921;28;20305;-79
2023/09/03 01:31:02;;;;;;;22.80;7.03;;;26.70;57.80;;;;;;5089349;28;20278;-80
2023/09/03 01:33:32;;;;;;;20.33;6.40;;;26.70;57.80;;;;;;5073348;28;20311;-79
2023/09/03 01:35:59;;;;;;;24.73;6.70;;;26.70;57.80;;;;;;5086434;28;20203;-79
2023/09/03 01:38:27;;;;;;;23.87;6.90;;;26.70;57.80;;;;;;5087041;28;20576;-79
2023/09/03 01:40:55;;;;;;;25.63;7.30;;;26.70;57.80;;;;;;5089419;28;20199;-79
2023/09/03 01:43:22;;;;;;;18.93;6.47;;;26.70;57.80;;;;;;5081707;28;20707;-79
2023/09/03 01:45:57;;;;;;;23.30;7.00;;;26.70;57.80;;;;;;5069892;28;20206;-79
2023/09/03 01:48:34;;;;;;;19.23;6.37;;;26.70;57.80;;;;;;5085395;28;20204;-79
2023/09/03 01:51:10;;;;;;;23.13;6.50;;;26.70;57.80;;;;;;5088527;28;20281;-79
2023/09/03 01:53:43;;;;;;;22.10;7.20;;;26.70;57.80;;;;;;5087980;28;20209;-79
2023/09/03 01:56:12;;;;;;;24.77;7.07;;;26.70;57.80;;;;;;5089762;28;20198;-79
2023/09/03 01:58:41;;;;;;;21.00;6.87;;;26.70;57.80;;;;;;5088277;28;20230;-80
2023/09/03 02:01:11;;;;;;;48.20;9.43;;;26.70;57.80;;;;;;5072530;28;20559;-79
2023/09/03 02:03:40;;;;;;;38.00;8.50;;;26.60;57.80;;;;;;5070673;28;20262;-79
2023/09/03 02:06:07;;;;;;;22.57;6.70;;;26.70;57.90;;;;;;5084981;28;20206;-79
2023/09/03 02:08:34;;;;;;;21.33;6.43;;;26.60;57.80;;;;;;5075311;28;20358;-79
2023/09/03 02:11:01;;;;;;;22.33;7.23;;;26.60;57.80;;;;;;5069031;28;20286;-80
2023/09/03 02:13:28;;;;;;;30.17;7.30;;;26.60;57.80;;;;;;5068399;28;20286;-79
2023/09/03 02:15:56;;;;;;;30.43;7.80;;;26.60;57.80;;;;;;5068636;28;20292;-80
2023/09/03 02:18:24;;;;;;;18.33;6.40;;;26.60;57.80;;;;;;5085561;28;20295;-79
2023/09/03 02:20:51;;;;;;;23.13;7.07;;;26.60;57.80;;;;;;5074583;28;20299;-79
2023/09/03 02:23:18;;;;;;;22.77;7.03;;;26.60;57.90;;;;;;5073558;28;20212;-79
2023/09/03 02:25:45;;;;;;;22.93;6.80;;;26.60;57.80;;;;;;5088970;28;20289;-78
2023/09/03 02:28:12;;;;;;;28.87;7.10;;;26.60;57.90;;;;;;5088497;28;20336;-78
2023/09/03 02:30:39;;;;;;;27.60;7.10;;;26.60;57.90;;;;;;5088918;28;20278;-79
2023/09/03 02:33:05;;;;;;;27.27;7.13;;;26.60;57.90;;;;;;5075107;28;20282;-79
2023/09/03 02:35:34;;;;;;;21.77;6.80;;;26.60;57.90;;;;;;5085523;28;20222;-79
2023/09/03 02:38:01;;;;;;;26.43;7.17;;;26.60;57.90;;;;;;5088549;28;20278;-79
2023/09/03 02:40:28;;;;;;;26.97;7.30;;;26.60;57.90;;;;;;5087647;28;20270;-79
2023/09/03 02:42:55;;;;;;;38.60;8.70;;;26.60;58.00;;;;;;5085723;28;20301;-80
2023/09/03 02:45:22;;;;;;;23.37;7.40;;;26.60;58.00;;;;;;5088691;28;20313;-79
2023/09/03 02:47:48;;;;;;;23.20;6.43;;;26.50;57.90;;;;;;5088735;28;20321;-80
2023/09/03 02:50:15;;;;;;;31.47;7.60;;;26.60;58.50;;;;;;5086801;28;20195;-80
2023/09/03 02:52:44;;;;;;;39.33;7.97;;;26.60;58.00;;;;;;5084419;28;20249;-80
2023/09/03 02:55:12;;;;;;;38.13;8.07;;;26.60;58.00;;;;;;5067371;28;20202;-79
2023/09/03 02:57:39;;;;;;;47.93;9.03;;;26.50;57.90;;;;;;5067596;28;20290;-80
2023/09/03 03:00:08;;;;;;;36.90;7.67;;;26.60;58.00;;;;;;5071469;28;20276;-79
2023/09/03 03:02:35;;;;;;;21.27;7.10;;;26.50;57.90;;;;;;5080310;28;20236;-80
2023/09/03 03:05:03;;;;;;;22.33;6.87;;;26.50;57.90;;;;;;5085968;28;20223;-80
2023/09/03 03:07:30;;;;;;;27.90;7.37;;;26.50;58.00;;;;;;5088226;28;20658;-79
2023/09/03 03:10:00;;;;;;;41.47;7.97;;;26.50;58.60;;;;;;5087297;28;20199;-79
2023/09/03 03:12:26;;;;;;;23.57;6.60;;;26.50;58.60;;;;;;5079438;28;20196;-80
2023/09/03 03:14:53;;;;;;;20.80;6.37;;;26.50;57.90;;;;;;5084630;28;20226;-80
2023/09/03 03:17:20;;;;;;;46.63;8.63;;;26.50;57.90;;;;;;5086651;28;20207;-80
2023/09/03 03:19:50;;;;;;;40.47;8.33;;;26.50;57.90;;;;;;5086132;28;20211;-80
2023/09/03 03:22:17;;;;;;;28.77;7.23;;;26.50;58.00;;;;;;5071450;28;20242;-80
2023/09/03 03:24:44;;;;;;;30.60;7.40;;;26.50;58.00;;;;;;5087003;28;20223;-79
2023/09/03 03:27:13;;;;;;;41.73;7.93;;;26.50;58.00;;;;;;5078418;28;20295;-80
2023/09/03 03:29:40;;;;;;;23.53;7.07;;;26.40;57.90;;;;;;5089875;28;20301;-79
2023/09/03 03:32:07;;;;;;;31.53;7.13;;;26.40;57.90;;;;;;5074398;28;20203;-80
2023/09/03 03:34:34;;;;;;;25.10;6.97;;;26.50;58.00;;;;;;5091117;28;20956;-79
2023/09/03 03:37:01;;;;;;;28.73;7.43;;;26.50;58.00;;;;;;5090935;28;20322;-80
2023/09/03 03:39:28;;;;;;;23.93;6.90;;;26.40;58.00;;;;;;5092139;28;20289;-80
2023/09/03 03:41:55;;;;;;;43.40;8.40;;;26.50;58.00;;;;;;5087554;28;20288;-79
2023/09/03 03:44:23;;;;;;;23.70;6.30;;;26.40;57.90;;;;;;5086058;28;20313;-80
2023/09/03 03:46:50;;;;;;;21.23;6.40;;;26.40;57.90;;;;;;5090266;28;20198;-79
2023/09/03 03:49:17;;;;;;;34.10;7.67;;;26.40;57.90;;;;;;5089412;28;20650;-79
2023/09/03 03:51:44;;;;;;;46.70;8.57;;;26.40;58.00;;;;;;5089359;28;20282;-79
2023/09/03 03:54:11;;;;;;;18.70;5.97;;;26.40;58.00;;;;;;5087480;28;20209;-79
2023/09/03 03:56:38;;;;;;;34.33;7.37;;;26.40;57.90;;;;;;5089489;28;20290;-78
2023/09/03 03:59:05;;;;;;;21.27;6.00;;;26.40;58.00;;;;;;5090787;28;20288;-79
2023/09/03 04:01:34;;;;;;;23.87;6.40;;;26.40;58.00;;;;;;5090353;28;20285;-79
2023/09/03 04:04:01;;;;;;;12.30;5.73;;;26.40;58.00;;;;;;5082213;28;20212;-79
2023/09/03 04:06:28;;;;;;;22.43;6.30;;;26.40;58.00;;;;;;5071475;28;20257;-79
2023/09/03 04:08:55;;;;;;;23.20;6.30;;;26.40;58.00;;;;;;5071473;28;20286;-79
2023/09/03 04:11:24;;;;;;;20.10;5.93;;;26.40;58.60;;;;;;5071415;28;20194;-79
2023/09/03 04:13:51;;;;;;;23.33;6.63;;;26.40;58.60;;;;;;5071279;28;20208;-79
2023/09/03 04:16:20;;;;;;;20.83;6.00;;;26.40;58.00;;;;;;5079235;28;20206;-79
2023/09/03 04:18:49;;;;;;;22.53;6.13;;;26.30;57.90;;;;;;5076185;28;20300;-79
2023/09/03 04:21:16;;;;;;;23.83;6.67;;;26.30;57.90;;;;;;5078364;28;20230;-79
2023/09/03 04:23:43;;;;;;;19.33;6.23;;;26.30;57.90;;;;;;5071074;28;20730;-79
2023/09/03 04:26:13;;;;;;;21.70;6.33;;;26.30;57.90;;;;;;5071735;28;20278;-79
2023/09/03 04:28:40;;;;;;;22.10;6.07;;;26.30;57.90;;;;;;5071269;28;20269;-79
2023/09/03 04:31:08;;;;;;;21.33;6.47;;;26.30;57.90;;;;;;5082962;28;20656;-79
2023/09/03 04:33:35;;;;;;;17.00;5.90;;;26.30;58.00;;;;;;5091114;28;20647;-79
2023/09/03 04:36:05;;;;;;;21.37;6.27;;;26.30;58.00;;;;;;5091629;28;20207;-79
2023/09/03 04:38:32;;;;;;;27.37;6.60;;;26.30;57.90;;;;;;5089880;28;20654;-79
2023/09/03 04:41:03;;;;;;;23.70;6.37;;;26.30;58.00;;;;;;5090869;28;20203;-79
2023/09/03 04:43:32;;;;;;;28.10;6.57;;;26.30;58.00;;;;;;5088616;28;20685;-79
2023/09/03 04:45:59;;;;;;;47.05;8.82;;;26.20;57.90;;;;;;5082225;28;20454;-80
2023/09/03 04:48:26;;;;;;;29.43;7.27;;;26.30;58.00;;;;;;5082617;28;20610;-80
2023/09/03 04:50:53;;;;;;;25.23;6.30;;;26.20;58.00;;;;;;5090895;28;20207;-80
2023/09/03 04:53:21;;;;;;;24.47;6.33;;;26.20;58.00;;;;;;5089760;28;20203;-81
2023/09/03 04:55:48;;;;;;;13.80;6.03;;;26.20;58.00;;;;;;5089610;28;20306;-80
2023/09/03 04:58:15;;;;;;;18.87;6.50;;;26.20;58.00;;;;;;5086762;28;20285;-81
2023/09/03 05:00:42;;;;;;;25.27;6.83;;;26.20;57.90;;;;;;5087796;28;20302;-81
2023/09/03 05:03:09;;;;;;;28.93;7.30;;;26.20;58.00;;;;;;5089487;28;20234;-81
2023/09/03 05:05:40;;;;;;;21.80;6.20;;;26.20;57.90;;;;;;5089779;28;20270;-81
2023/09/03 05:08:08;;;;;;;37.13;7.50;;;26.20;58.00;;;;;;5088245;28;20210;-81
2023/09/03 05:10:36;;;;;;;43.77;8.17;;;26.20;58.00;;;;;;5088485;28;20322;-80
2023/09/03 05:13:04;;;;;;;27.30;6.73;;;26.20;58.00;;;;;;5089558;28;20293;-80
2023/09/03 05:15:31;;;;;;;25.30;6.10;;;26.20;58.00;;;;;;5088954;28;20209;-81
2023/09/03 05:17:58;;;;;;;23.97;6.17;;;26.20;57.90;;;;;;5082726;28;20380;-80
2023/09/03 05:20:25;;;;;;;40.97;7.90;;;26.20;57.90;;;;;;5086126;28;20604;-80
2023/09/03 05:22:52;;;;;;;25.17;6.37;;;26.20;58.00;;;;;;5087970;28;20304;-80
2023/09/03 05:25:19;;;;;;;23.63;6.77;;;26.20;58.00;;;;;;5088648;28;20321;-81
2023/09/03 05:27:47;;;;;;;20.30;6.07;;;26.10;57.90;;;;;;5080221;28;20283;-81
2023/09/03 05:30:14;;;;;;;39.47;7.37;;;26.20;58.60;;;;;;5070827;28;20302;-81
2023/09/03 05:32:41;;;;;;;46.97;8.20;;;26.20;58.00;;;;;;5069273;28;20310;-81
2023/09/03 05:35:09;;;;;;;33.10;7.57;;;26.10;57.90;;;;;;5069245;28;20306;-81
2023/09/03 05:37:36;;;;;;;41.27;7.97;;;26.20;58.00;;;;;;5086165;28;20631;-81
2023/09/03 05:40:04;;;;;;;71.23;10.37;;;26.10;57.90;;;;;;5086414;28;20290;-78
2023/09/03 05:42:31;;;;;;;27.27;6.83;;;26.10;57.90;;;;;;5075840;28;20211;-80
2023/09/03 05:45:00;;;;;;;18.37;6.10;;;26.10;57.90;;;;;;5086356;28;20321;-80
2023/09/03 05:47:27;;;;;;;31.87;7.07;;;26.10;58.00;;;;;;5090106;28;20754;-79
2023/09/03 05:49:56;;;;;;;25.97;6.43;;;26.10;58.00;;;;;;5087326;28;20301;-80
2023/09/03 05:52:23;;;;;;;27.43;6.57;;;26.10;58.00;;;;;;5087736;28;20202;-80
2023/09/03 05:54:51;;;;;;;24.43;6.37;;;26.10;58.00;;;;;;5086196;28;20200;-80
2023/09/03 05:57:18;;;;;;;26.47;6.67;;;26.10;58.00;;;;;;5088387;28;20199;-80
2023/09/03 05:59:50;;;;;;;29.30;6.87;;;26.10;58.00;;;;;;5074085;28;20234;-80
2023/09/03 06:02:18;;;;;;;24.70;6.37;;;26.10;58.00;;;;;;5074755;28;20896;-80
2023/09/03 06:04:45;;;;;;;42.67;7.77;;;26.10;58.60;;;;;;5087090;28;20222;-81
2023/09/03 06:07:13;;;;;;;35.10;7.40;;;26.10;58.00;;;;;;5080847;28;20239;-81
2023/09/03 06:09:40;;;;;;;26.47;6.57;;;26.10;58.60;;;;;;5077246;28;20198;-81
2023/09/03 06:12:07;;;;;;;32.47;7.67;;;26.10;58.00;;;;;;5088128;28;20210;-81
2023/09/03 06:14:34;;;;;;;29.77;7.60;;;26.10;58.00;;;;;;5079309;28;20208;-81
2023/09/03 06:17:03;;;;;;;23.47;6.73;;;26.10;58.00;;;;;;5088813;28;20222;-81
2023/09/03 06:19:32;;;;;;;19.70;6.23;;;26.10;58.00;;;;;;5078530;28;20202;-80
2023/09/03 06:21:59;;;;;;;32.67;7.20;;;26.10;58.00;;;;;;5068373;28;20288;-80
2023/09/03 06:24:26;;;;;;;25.40;6.83;;;26.10;58.00;;;;;;5074582;28;20285;-80
2023/09/03 06:26:52;;;;;;;20.50;6.10;;;26.10;58.10;;;;;;5079568;28;20214;-80
2023/09/03 06:29:19;;;;;;;22.73;6.27;;;26.10;58.10;;;;;;5068745;28;20242;-81
2023/09/03 06:31:46;;;;;;;30.20;6.60;;;26.10;58.70;;;;;;5084327;28;20290;-80
2023/09/03 06:34:13;;;;;;;25.50;6.60;;;26.10;58.10;;;;;;5068347;28;20310;-80
2023/09/03 06:36:42;;;;;;;30.80;7.03;;;26.10;58.10;;;;;;5070453;28;20293;-80
2023/09/03 06:39:09;;;;;;;32.57;7.00;;;26.10;58.00;;;;;;5088308;28;20218;-80
2023/09/03 06:41:36;;;;;;;21.50;6.03;;;26.10;58.10;;;;;;5083833;28;20274;-81
2023/09/03 06:44:06;;;;;;;20.20;6.00;;;26.10;58.10;;;;;;5077529;28;20211;-81
2023/09/03 06:46:33;;;;;;;30.40;6.67;;;26.10;58.10;;;;;;5071111;28;20341;-81
2023/09/03 06:49:00;;;;;;;22.37;5.97;;;26.10;58.10;;;;;;5069539;28;20288;-81
2023/09/03 06:51:27;;;;;;;19.87;6.07;;;26.10;58.10;;;;;;5078638;28;20293;-81
2023/09/03 06:53:55;;;;;;;22.63;6.23;;;26.10;58.10;;;;;;5079617;28;20310;-80
2023/09/03 06:56:23;;;;;;;23.30;6.17;;;26.10;58.10;;;;;;5087901;28;20199;-80
2023/09/03 06:58:50;;;;;;;23.90;6.13;;;26.10;58.10;;;;;;5085692;28;20246;-80
2023/09/03 07:01:19;;;;;;;41.10;7.70;;;26.10;58.10;;;;;;5073185;28;20199;-81
2023/09/03 07:03:46;;;;;;;22.50;6.20;;;26.10;58.10;;;;;;5081856;28;20281;-80
2023/09/03 07:06:13;;;;;;;38.50;7.33;;;26.10;58.10;;;;;;5080343;28;20270;-80
2023/09/03 07:08:40;;;;;;;20.53;6.13;;;26.10;58.10;;;;;;5091085;28;20201;-81
2023/09/03 07:11:08;;;;;;;25.53;6.33;;;26.10;58.10;;;;;;5087735;28;20289;-81
2023/09/03 07:13:35;;;;;;;22.53;6.40;;;26.10;58.10;;;;;;5083912;28;20289;-80
2023/09/03 07:16:04;;;;;;;20.73;5.90;;;26.10;58.10;;;;;;5092530;28;20243;-80
2023/09/03 07:18:31;;;;;;;27.97;6.37;;;26.10;58.10;;;;;;5072425;28;20288;-79
2023/09/03 07:21:05;;;;;;;23.03;6.10;;;26.10;58.10;;;;;;5076315;28;20203;-80
2023/09/03 07:23:32;;;;;;;25.30;6.23;;;26.10;58.10;;;;;;5082941;28;20206;-81
2023/09/03 07:26:02;;;;;;;39.20;7.40;;;26.10;58.10;;;;;;5077086;28;20227;-80
2023/09/03 07:28:31;;;;;;;29.57;7.20;;;26.10;58.10;;;;;;5071443;28;20207;-81
2023/09/03 07:30:58;;;;;;;41.50;7.27;;;26.10;58.10;;;;;;5085594;28;20207;-80
2023/09/03 07:33:25;;;;;;;30.83;6.63;;;26.20;58.20;;;;;;5075675;28;20326;-80
2023/09/03 07:35:52;;;;;;;21.47;6.00;;;26.20;58.20;;;;;;5071575;28;20294;-80
2023/09/03 07:38:19;;;;;;;25.43;6.53;;;26.20;58.20;;;;;;5077518;28;20197;-81
2023/09/03 07:40:46;;;;;;;34.63;6.87;;;26.20;58.20;;;;;;5080339;28;20249;-81
2023/09/03 07:43:13;;;;;;;22.17;5.80;;;26.20;58.20;;;;;;5073353;28;20215;-81
2023/09/03 07:45:41;;;;;;;19.73;5.43;;;26.20;58.20;;;;;;5071081;28;20237;-81
2023/09/03 07:48:08;;;;;;;19.37;5.87;;;26.20;58.20;;;;;;5079971;28;20285;-81
2023/09/03 07:50:38;;;;;;;42.83;7.83;;;26.20;58.20;;;;;;5072503;28;20254;-80
2023/09/03 07:53:07;;;;;;;33.53;7.40;;;26.20;58.20;;;;;;5076527;28;20226;-81
2023/09/03 07:55:33;;;;;;;28.93;6.83;;;26.30;58.20;;;;;;5084270;28;20252;-80
2023/09/03 07:58:00;;;;;;;36.33;7.23;;;26.30;58.30;;;;;;5088987;28;20285;-80
2023/09/03 08:00:28;;;;;;;22.80;5.90;;;26.30;58.30;;;;;;5075105;28;20287;-81
2023/09/03 08:02:57;;;;;;;28.80;6.23;;;26.30;58.80;;;;;;5074646;28;20662;-81
2023/09/03 08:05:24;;;;;;;27.03;6.13;;;26.30;58.20;;;;;;5085498;28;20226;-81
2023/09/03 08:07:51;;;;;;;26.43;6.70;;;26.40;58.30;;;;;;5084196;28;20282;-81
2023/09/03 08:10:18;;;;;;;24.80;6.47;;;26.40;58.30;;;;;;5076690;28;20283;-81
2023/09/03 08:12:45;;;;;;;32.03;6.67;;;26.40;58.30;;;;;;5076785;28;20278;-81
2023/09/03 08:15:13;;;;;;;21.83;6.30;;;26.40;58.30;;;;;;5080598;28;20302;-80
2023/09/03 08:17:40;;;;;;;33.13;7.20;;;26.40;58.30;;;;;;5078505;28;20198;-81
2023/09/03 08:20:09;;;;;;;22.93;6.00;;;26.40;58.40;;;;;;5086128;28;20290;-81
2023/09/03 08:22:37;;;;;;;24.20;6.13;;;26.50;58.40;;;;;;5086277;28;20226;-81
2023/09/03 08:25:05;;;;;;;24.10;6.33;;;26.50;58.40;;;;;;5073900;28;20204;-81
2023/09/03 08:27:32;;;;;;;28.93;6.80;;;26.50;58.40;;;;;;5070600;28;20264;-81
2023/09/03 08:29:58;;;;;;;44.17;7.87;;;26.60;58.50;;;;;;5084023;28;20294;-80
2023/09/03 08:32:25;;;;;;;54.03;9.30;;;26.50;58.40;;;;;;5081616;28;20309;-80
2023/09/03 08:34:55;;;;;;;27.70;6.47;;;26.60;58.50;;;;;;5083525;28;20202;-79
2023/09/03 08:37:26;;;;;;;65.17;9.73;;;26.60;58.50;;;;;;5087302;28;20289;-81
2023/09/03 08:39:53;;;;;;;25.43;6.77;;;26.60;58.50;;;;;;5081878;28;20260;-75
2023/09/03 08:42:21;;;;;;;40.53;9.23;;;26.60;58.50;;;;;;5077344;28;20445;-78
2023/09/03 08:44:52;;;;;;;48.73;11.30;;;26.70;58.60;;;;;;5085441;28;20196;-76
2023/09/03 08:47:19;;;;;;;36.40;9.83;;;26.70;58.60;;;;;;5087818;28;20334;-76
2023/09/03 08:49:47;;;;;;;35.43;9.73;;;26.80;58.70;;;;;;5089701;28;20289;-77
2023/09/03 08:52:16;;;;;;;26.93;8.33;;;26.80;59.30;;;;;;5089528;28;20285;-79
2023/09/03 08:54:45;;;;;;;38.13;9.33;;;26.80;58.70;;;;;;5088812;28;20203;-80
2023/09/03 08:57:13;;;;;;;31.27;8.93;;;26.80;59.30;;;;;;5089621;28;20285;-78
2023/09/03 08:59:39;;;;;;;31.43;8.87;;;26.90;59.30;;;;;;5089775;28;20206;-80
2023/09/03 09:02:12;;;;;;;29.37;7.97;;;26.90;58.70;;;;;;5089303;28;20205;-79
2023/09/03 09:04:39;;;;;;;48.50;9.20;;;27.00;58.80;;;;;;5085738;28;20667;-79
2023/09/03 09:07:07;;;;;;;33.97;8.90;;;27.00;58.70;;;;;;5069877;28;20322;-80
2023/09/03 09:09:37;;;;;;;34.43;8.60;;;27.00;58.70;;;;;;5077285;28;20275;-78
2023/09/03 09:12:13;;;;;;;25.77;7.73;;;27.10;58.80;;;;;;5088955;28;20241;-79
2023/09/03 09:14:49;;;;;;;24.00;8.07;;;27.10;58.70;;;;;;5089590;28;20236;-78
2023/09/03 09:17:16;;;;;;;28.73;7.50;;;27.20;58.80;;;;;;5090159;28;20306;-78
2023/09/03 09:19:43;;;;;;;28.63;7.50;;;27.20;58.80;;;;;;5088763;28;20289;-81
2023/09/03 09:22:11;;;;;;;25.40;7.60;;;27.20;58.80;;;;;;5087931;28;20652;-81
2023/09/03 09:24:45;;;;;;;32.30;7.80;;;27.30;58.80;;;;;;5088171;28;20598;-81
2023/09/03 09:27:18;;;;;;;27.57;7.70;;;27.30;58.80;;;;;;5088485;28;20764;-77
2023/09/03 09:29:45;;;;;;;30.70;7.57;;;27.40;58.80;;;;;;5089016;28;20290;-76
2023/09/03 09:32:20;;;;;;;37.43;8.17;;;27.40;58.80;;;;;;5087670;28;20285;-81
2023/09/03 09:34:47;;;;;;;22.40;7.07;;;27.40;58.70;;;;;;5069182;28;20234;-80
2023/09/03 09:37:15;;;;;;;34.47;7.97;;;27.50;58.70;;;;;;5084771;28;20309;-78
2023/09/03 09:39:46;;;;;;;34.70;8.30;;;27.50;58.70;;;;;;5085316;28;20201;-76
2023/09/03 09:42:18;;;;;;;37.60;8.47;;;27.60;58.70;;;;;;5087109;28;20209;-76
2023/09/03 09:44:59;;;;;;;26.93;8.03;;;27.60;58.70;;;;;;5086400;28;20847;-77
2023/09/03 09:47:27;;;;;;;27.23;7.33;;;27.70;58.70;;;;;;5089278;28;20318;-79
2023/09/03 09:49:54;;;;;;;24.67;7.27;;;27.70;58.70;;;;;;5088548;28;20274;-76
2023/09/03 09:52:21;;;;;;;28.87;8.03;;;27.70;58.60;;;;;;5089467;28;20213;-76
2023/09/03 09:54:49;;;;;;;28.80;7.80;;;27.70;58.60;;;;;;5083987;28;20566;-77
2023/09/03 09:57:19;;;;;;;17.53;7.03;;;27.80;58.60;;;;;;5089264;28;20245;-76
2023/09/03 09:59:52;;;;;;;25.20;7.77;;;27.80;58.60;;;;;;5075289;28;20195;-81
2023/09/03 10:02:21;;;;;;;25.43;7.53;;;27.90;58.60;;;;;;5073150;28;20203;-76
2023/09/03 10:04:50;;;;;;;30.33;8.10;;;27.90;58.60;;;;;;5073968;28;20250;-76
2023/09/03 10:07:17;;;;;;;20.83;7.77;;;28.00;58.70;;;;;;5070409;28;20224;-77
2023/09/03 10:09:45;;;;;;;22.57;7.63;;;28.00;59.10;;;;;;5089041;28;20640;-76
2023/09/03 10:12:14;;;;;;;24.50;8.00;;;28.00;58.60;;;;;;5088686;28;20209;-76
2023/09/03 10:14:41;;;;;;;28.63;8.20;;;28.10;58.60;;;;;;5069306;28;20265;-76
2023/09/03 10:17:10;;;;;;;28.43;8.10;;;28.20;58.60;;;;;;5069028;28;20278;-76
2023/09/03 10:19:43;;;;;;;20.07;6.97;;;28.20;58.50;;;;;;5068705;28;20196;-77
2023/09/03 10:22:14;;;;;;;26.93;8.17;;;28.30;58.50;;;;;;5068751;28;20229;-76
2023/09/03 10:24:44;;;;;;;29.83;7.83;;;28.30;58.50;;;;;;5068667;28;20580;-77
2023/09/03 10:27:19;;;;;;;30.37;8.33;;;28.40;58.50;;;;;;5068634;28;20787;-76
2023/09/03 10:29:48;;;;;;;24.33;7.93;;;28.50;58.50;;;;;;5072422;28;20285;-76
2023/09/03 10:32:16;;;;;;;28.40;8.27;;;28.60;58.50;;;;;;5087165;28;20729;-77
2023/09/03 10:34:45;;;;;;;26.07;8.63;;;28.70;58.60;;;;;;5085863;28;20711;-77
2023/09/03 10:37:13;;;;;;;44.50;9.60;;;28.80;58.60;;;;;;5088222;28;20202;-77
2023/09/03 10:39:42;;;;;;;28.93;8.60;;;28.90;58.60;;;;;;5074311;28;20290;-77
2023/09/03 10:42:31;;;;;;;24.90;7.90;;;29.00;59.30;;;;;;5084186;28;20202;-77
2023/09/03 10:45:00;;;;;;;33.47;8.77;;;29.20;58.80;;;;;;5088638;28;20207;-78
2023/09/03 10:47:27;;;;;;;28.90;7.73;;;29.30;58.70;;;;;;5087549;28;20280;-77
2023/09/03 10:49:56;;;;;;;29.67;8.17;;;29.40;58.80;;;;;;5088224;28;20205;-77
2023/09/03 10:52:37;;;;;;;22.93;7.40;;;29.50;58.70;;;;;;5081449;28;20207;-77
2023/09/03 10:55:16;;;;;;;39.60;8.83;;;29.70;58.70;;;;;;5079636;28;20294;-77
2023/09/03 10:57:44;;;;;;;27.67;7.97;;;29.80;58.60;;;;;;5083054;28;20293;-77
2023/09/03 11:00:20;;;;;;;28.70;8.10;;;29.90;58.60;;;;;;5087380;28;20238;-78
2023/09/03 11:02:48;;;;;;;28.63;8.07;;;30.10;58.50;;;;;;5086940;28;20281;-76
2023/09/03 11:05:21;;;;;;;27.60;8.60;;;30.20;58.40;;;;;;5087549;28;20240;-77
2023/09/03 11:07:50;;;;;;;28.40;7.50;;;30.30;58.00;;;;;;5085917;28;20218;-77
2023/09/03 11:10:39;;;;;;;40.43;8.70;;;30.40;57.90;;;;;;5074832;28;20563;-77
2023/09/03 11:13:13;;;;;;;46.73;9.47;;;30.50;57.50;;;;;;5075224;28;20229;-77
2023/09/03 11:15:52;;;;;;;28.30;7.90;;;30.60;57.50;;;;;;5073531;28;20204;-76
2023/09/03 11:18:21;;;;;;;30.80;7.93;;;30.70;57.20;;;;;;5071902;28;20289;-77
2023/09/03 11:20:50;;;;;;;28.77;7.87;;;30.70;57.30;;;;;;5077613;28;20207;-77
2023/09/03 11:23:18;;;;;;;29.00;7.33;;;30.70;57.00;;;;;;5086729;28;20209;-77
2023/09/03 11:25:48;;;;;;;26.27;7.27;;;30.80;56.90;;;;;;5074461;28;20214;-77
2023/09/03 11:28:15;;;;;;;35.93;8.67;;;30.70;56.70;;;;;;5076458;28;20302;-77
2023/09/03 11:30:43;;;;;;;24.43;6.93;;;30.80;56.70;;;;;;5071431;28;20200;-76
2023/09/03 11:33:23;;;;;;;22.03;7.40;;;30.80;56.60;;;;;;5068886;28;20275;-77
2023/09/03 11:35:53;;;;;;;39.33;9.50;;;30.80;56.30;;;;;;5067379;28;20310;-76
2023/09/03 11:38:23;;;;;;;28.33;8.03;;;30.80;56.50;;;;;;5067595;28;20303;-77
2023/09/03 11:40:55;;;;;;;25.87;7.23;;;30.80;56.50;;;;;;5074301;28;20282;-77
2023/09/03 11:43:22;;;;;;;52.27;9.73;;;30.90;56.40;;;;;;5074320;28;20663;-77
2023/09/03 11:45:49;;;;;;;28.43;7.60;;;30.90;56.50;;;;;;5071156;28;20288;-78
2023/09/03 11:48:16;;;;;;;43.83;8.77;;;31.00;56.50;;;;;;5085118;28;20318;-77
2023/09/03 11:50:42;;;;;;;29.30;8.17;;;31.00;56.50;;;;;;5088212;28;20278;-79
2023/09/03 11:53:11;;;;;;;28.20;7.50;;;31.00;56.50;;;;;;5089049;28;20281;-77
2023/09/03 11:55:42;;;;;;;30.10;8.13;;;31.20;56.50;;;;;;5087679;28;20191;-77
2023/09/03 11:58:11;;;;;;;22.95;7.30;;;31.20;56.50;;;;;;5090451;28;20248;-77
2023/09/03 12:00:40;;;;;;;29.52;7.50;;;31.30;56.50;;;;;;5080557;28;20294;-78
2023/09/03 12:03:07;;;;;;;27.48;7.10;;;31.30;56.40;;;;;;5086118;28;20199;-77
2023/09/03 12:05:35;;;;;;;36.10;8.15;;;31.40;56.40;;;;;;5071978;28;20218;-77
2023/09/03 12:08:03;;;;;;;31.13;8.00;;;31.50;56.30;;;;;;5076768;28;20305;-77
2023/09/03 12:10:32;;;;;;;34.33;8.02;;;31.60;56.20;;;;;;5091084;28;20311;-77
2023/09/03 12:13:01;;;;;;;23.60;7.10;;;31.60;55.90;;;;;;5090425;28;20574;-78
2023/09/03 12:15:30;;;;;;;31.63;7.40;;;31.60;55.80;;;;;;5091122;28;20210;-77
2023/09/03 12:18:08;;;;;;;28.98;6.82;;;31.60;55.60;;;;;;5091109;28;20199;-77
2023/09/03 12:20:37;;;;;;;31.05;7.50;;;31.70;55.30;;;;;;5091111;28;20919;-81
2023/09/03 12:23:09;;;;;;;35.50;8.53;;;31.70;55.40;;;;;;5090583;28;20321;-77
2023/09/03 12:25:37;;;;;;;29.48;7.28;;;31.70;55.10;;;;;;5090981;28;20234;-77
2023/09/03 12:28:05;;;;;;;45.03;8.80;;;31.70;55.20;;;;;;5090562;28;20226;-78
2023/09/03 12:30:55;;;;;;;26.90;7.07;;;31.60;55.20;;;;;;5090465;28;20246;-77
2023/09/03 12:33:22;;;;;;;29.60;8.00;;;31.60;54.80;;;;;;5091323;28;20295;-78
2023/09/03 12:36:04;;;;;;;33.40;7.82;;;31.60;55.10;;;;;;5091055;28;20218;-76
2023/09/03 12:38:31;;;;;;;30.07;7.13;;;31.60;54.80;;;;;;5082628;28;20296;-80
2023/09/03 12:41:00;;;;;;;27.73;7.07;;;31.60;55.10;;;;;;5083845;28;20239;-77
2023/09/03 12:43:36;;;;;;;35.72;8.02;;;31.50;55.00;;;;;;5087394;28;20287;-76